Ana Sayfa
METAR-TAF:

METAR-TAF

Havaalanları :

Meadow Lake, Saskatchewan, Kanada

Enlem: 54-08N, Boylam: 108-31W, yükseklik: 480 m

Güncel hava durumu gözlemi

Rapor saat 00:00 UTC de 1 saat ve 0 dakika önce yapıldı.
Rüzgar batıdan 11 kt
Sıcaklık 15°C
Nem 29%
Basınç 1011 hPa
Görüş mesafesi: 24.1 km
10000 ft yükseklikte parçalı bulutlu
23000 ft yükseklikte parçalı çok bulutlu
30000 ft yükseklikte çok bulutlu

METAR: CYLJ 190000Z 26011KT 15SM SCT100 BKN230 OVC300 15/M03 A2984 RMK AC3CI2CS3 LAST STFD OB/NXT 19 1200UTC SLP121 DENSITY ALT 2100FT

Saat: 19:00 (01:00 UTC)


TAF: eksik

4.000'den fazla havaalanı için hava durumu gözlemleri ve tahminleri (METAR ve TAF raporları).

Kullanılabilir istasyonlar harita üzerinde sarı ve kırmızı noktalarla gösterilir.

İstasyonun adını görmek için fareyi noktanın üzerinde gezdirin.

Sonrasında hava gözlem ve tahminlerini görmek için tıklayın.

Haritayı değiştirmek için: yaklaştırmak için siyah artı işaretli yeşil düğmeye ve uzaklaştırmak için de eksi işaretli düğmeye hızla tıklayın; bitişik haritalar için yeşil okları kullanın.


METAR-TAF: